createdAt,value
2023-01-28T00:02:41.411Z,0.00
2023-01-28T00:12:50.666Z,0.00
2023-01-28T00:23:00.263Z,0.00
2023-01-28T00:33:09.594Z,0.00
2023-01-28T00:43:19.466Z,0.00
2023-01-28T00:53:28.602Z,0.00
2023-01-28T01:03:38.065Z,0.00
2023-01-28T01:13:47.711Z,0.00
2023-01-28T01:23:57.452Z,0.00
2023-01-28T01:34:07.340Z,0.00
2023-01-28T01:44:16.738Z,0.00
2023-01-28T01:54:26.825Z,0.00
2023-01-28T02:04:35.484Z,0.00
2023-01-28T02:14:46.203Z,0.00
2023-01-28T02:24:55.729Z,0.00
2023-01-28T02:35:05.290Z,0.00
2023-01-28T02:45:15.370Z,0.00
2023-01-28T02:55:25.356Z,0.00
2023-01-28T03:05:34.019Z,0.00
2023-01-28T03:15:44.286Z,0.00
2023-01-28T03:25:54.283Z,0.00
2023-01-28T03:37:23.412Z,0.00
2023-01-28T03:47:31.164Z,0.00
2023-01-28T03:57:40.633Z,0.00
2023-01-28T04:07:50.363Z,0.00
2023-01-28T04:17:59.630Z,0.00
2023-01-28T04:28:09.399Z,0.00
2023-01-28T04:38:19.123Z,0.00
2023-01-28T04:48:27.607Z,0.00
2023-01-28T04:58:37.216Z,0.00
2023-01-28T05:08:45.686Z,0.00
2023-01-28T05:18:55.396Z,0.00
2023-01-28T05:29:05.146Z,0.00
2023-01-28T05:39:15.583Z,0.00
2023-01-28T05:49:25.057Z,0.00
2023-01-28T05:59:34.875Z,0.00
2023-01-28T06:09:44.705Z,0.00
2023-01-28T06:19:53.889Z,0.00
2023-01-28T06:30:03.451Z,0.00
2023-01-28T06:40:13.776Z,0.00
2023-01-28T06:50:23.451Z,0.00
2023-01-28T07:00:33.414Z,4.00
2023-01-28T07:10:42.022Z,4.00
2023-01-28T07:20:52.480Z,4.00
2023-01-28T07:31:02.405Z,8.00
2023-01-28T07:41:11.365Z,12.00
2023-01-28T07:51:20.685Z,16.00
2023-01-28T08:01:30.579Z,20.00
2023-01-28T08:11:40.449Z,24.00
2023-01-28T08:21:49.134Z,24.00
2023-01-28T08:31:58.735Z,36.00
2023-01-28T08:42:08.564Z,44.00
2023-01-28T08:52:17.248Z,48.00
2023-01-28T09:02:31.457Z,72.00
2023-01-28T09:12:40.161Z,80.00
2023-01-28T09:22:49.397Z,84.00
2023-01-28T09:32:58.853Z,92.00
2023-01-28T09:43:07.563Z,96.00
2023-01-28T09:53:16.115Z,88.00
2023-01-28T10:03:25.060Z,88.00
2023-01-28T10:13:34.338Z,92.00
2023-01-28T10:23:44.522Z,96.00
2023-01-28T10:33:53.551Z,100.00
2023-01-28T10:44:03.562Z,100.00
2023-01-28T10:54:14.008Z,96.00
2023-01-28T11:04:23.127Z,120.00
2023-01-28T11:14:32.264Z,108.00
2023-01-28T11:24:40.987Z,100.00
2023-01-28T11:34:49.794Z,96.00
2023-01-28T11:44:59.605Z,76.00
2023-01-28T11:55:09.600Z,68.00
2023-01-28T12:05:20.234Z,40.00
2023-01-28T12:15:30.243Z,36.00
2023-01-28T12:25:39.614Z,16.00
2023-01-28T12:35:48.893Z,32.00
2023-01-28T12:45:58.475Z,28.00
2023-01-28T12:56:08.355Z,20.00
2023-01-28T13:06:17.134Z,56.00
2023-01-28T13:16:36.863Z,28.00
2023-01-28T13:26:41.084Z,44.00
2023-01-28T13:36:50.246Z,44.00
2023-01-28T13:47:00.468Z,36.00
2023-01-28T13:57:10.163Z,28.00
2023-01-28T14:07:19.626Z,24.00
2023-01-28T14:17:29.413Z,28.00
2023-01-28T14:27:39.254Z,24.00
2023-01-28T14:37:47.928Z,20.00
2023-01-28T14:47:56.526Z,32.00
2023-01-28T14:58:05.055Z,8.00
2023-01-28T15:08:13.715Z,8.00
2023-01-28T15:18:22.705Z,4.00
2023-01-28T15:28:32.454Z,0.00
2023-01-28T15:38:41.111Z,4.00
2023-01-28T15:48:50.647Z,0.00
2023-01-28T15:59:00.439Z,0.00
2023-01-28T16:09:10.207Z,40.00
2023-01-28T16:19:18.649Z,40.00
2023-01-28T16:29:30.558Z,36.00
2023-01-28T16:39:40.398Z,40.00
2023-01-28T16:49:49.613Z,40.00
2023-01-28T16:59:58.050Z,40.00
2023-01-28T17:10:07.324Z,36.00
2023-01-28T17:20:15.767Z,40.00
2023-01-28T17:30:25.403Z,40.00
2023-01-28T17:40:35.376Z,40.00
2023-01-28T17:50:45.380Z,40.00
2023-01-28T18:00:55.154Z,36.00
2023-01-28T18:11:05.176Z,40.00
2023-01-28T18:21:15.674Z,40.00
2023-01-28T18:31:25.190Z,40.00
2023-01-28T18:41:35.250Z,40.00
2023-01-28T18:51:44.691Z,40.00
2023-01-28T19:01:53.769Z,40.00
2023-01-28T19:12:02.500Z,40.00
2023-01-28T19:22:13.176Z,36.00
2023-01-28T19:32:21.902Z,36.00
2023-01-28T19:42:30.547Z,40.00
2023-01-28T19:52:39.800Z,36.00
2023-01-28T20:02:49.418Z,36.00
2023-01-28T20:12:58.375Z,36.00
2023-01-28T20:23:07.124Z,40.00
2023-01-28T20:33:16.835Z,40.00
2023-01-28T20:43:26.820Z,36.00
2023-01-28T20:53:38.161Z,40.00
2023-01-28T21:03:47.079Z,36.00
2023-01-28T21:13:55.335Z,36.00
2023-01-28T21:24:03.580Z,40.00
2023-01-28T21:34:13.426Z,36.00
2023-01-28T21:44:22.024Z,36.00
2023-01-28T21:54:32.117Z,36.00
2023-01-28T22:04:41.949Z,0.00
2023-01-28T22:14:51.935Z,0.00
2023-01-28T22:25:01.833Z,0.00
2023-01-28T22:35:11.967Z,0.00
2023-01-28T22:45:21.577Z,0.00
2023-01-28T22:55:30.834Z,0.00
2023-01-28T23:05:41.058Z,0.00
2023-01-28T23:15:50.548Z,0.00
2023-01-28T23:25:59.959Z,0.00
2023-01-28T23:36:09.348Z,0.00
2023-01-28T23:46:27.433Z,0.00
2023-01-28T23:56:34.990Z,0.00
